createdAt,value
2019-05-22T00:00:57.235Z,0.00
2019-05-22T00:01:57.236Z,0.00
2019-05-22T00:02:57.233Z,0.00
2019-05-22T00:03:57.231Z,0.00
2019-05-22T00:04:57.224Z,0.00
2019-05-22T00:05:57.225Z,0.00
2019-05-22T00:06:57.224Z,0.00
2019-05-22T00:07:57.223Z,0.00
2019-05-22T00:08:57.228Z,0.00
2019-05-22T00:09:57.222Z,0.00
2019-05-22T00:10:57.221Z,0.00
2019-05-22T00:11:57.227Z,0.00
2019-05-22T00:12:57.217Z,0.00
2019-05-22T00:13:57.224Z,0.00
2019-05-22T00:14:57.219Z,0.00
2019-05-22T00:15:57.212Z,0.00
2019-05-22T00:16:57.209Z,0.00
2019-05-22T00:17:57.205Z,0.00
2019-05-22T00:18:57.204Z,0.00
2019-05-22T00:19:57.208Z,0.00
2019-05-22T00:20:57.199Z,0.00
2019-05-22T00:21:57.197Z,0.00
2019-05-22T00:22:57.196Z,0.00
2019-05-22T00:23:57.205Z,0.00
2019-05-22T00:24:57.183Z,0.00
2019-05-22T00:25:57.190Z,0.00
2019-05-22T00:26:57.234Z,0.00
2019-05-22T00:27:57.185Z,0.00
2019-05-22T00:28:57.185Z,0.00
2019-05-22T00:29:57.178Z,0.00
2019-05-22T00:30:57.179Z,0.00
2019-05-22T00:31:57.183Z,0.00
2019-05-22T00:32:57.179Z,0.00
2019-05-22T00:33:57.175Z,0.00
2019-05-22T00:34:57.173Z,0.00
2019-05-22T00:35:57.183Z,0.00
2019-05-22T00:36:57.169Z,0.00
2019-05-22T00:37:57.178Z,0.00
2019-05-22T00:38:57.169Z,0.00
2019-05-22T00:39:57.161Z,0.00
2019-05-22T00:40:57.161Z,0.00
2019-05-22T00:41:57.156Z,0.00
2019-05-22T00:43:04.150Z,0.00
2019-05-22T00:43:57.154Z,0.00
2019-05-22T00:44:57.158Z,0.00
2019-05-22T00:45:57.167Z,0.00
2019-05-22T00:46:57.153Z,0.00
2019-05-22T00:47:57.147Z,0.00
2019-05-22T00:48:57.145Z,0.00
2019-05-22T00:49:57.142Z,0.00
2019-05-22T00:50:57.131Z,0.00
2019-05-22T00:51:57.135Z,0.00
2019-05-22T00:52:57.131Z,0.00
2019-05-22T00:53:57.132Z,0.00
2019-05-22T00:54:57.128Z,0.00
2019-05-22T00:55:57.128Z,0.00
2019-05-22T00:56:57.126Z,0.00
2019-05-22T00:57:57.127Z,0.00
2019-05-22T00:58:57.123Z,0.00
2019-05-22T00:59:57.116Z,0.00
2019-05-22T01:00:57.125Z,0.00
2019-05-22T01:01:57.117Z,0.00
2019-05-22T01:02:57.108Z,0.00
2019-05-22T01:03:57.107Z,0.00
2019-05-22T01:04:57.107Z,0.00
2019-05-22T01:05:57.102Z,0.00
2019-05-22T01:06:57.100Z,0.00
2019-05-22T01:07:57.122Z,0.00
2019-05-22T01:08:57.102Z,0.00
2019-05-22T01:09:57.095Z,0.00
2019-05-22T01:10:57.094Z,0.00
2019-05-22T01:11:57.094Z,0.00
2019-05-22T01:12:57.092Z,0.00
2019-05-22T01:13:57.080Z,0.00
2019-05-22T01:14:57.077Z,0.00
2019-05-22T01:15:57.083Z,0.00
2019-05-22T01:16:57.080Z,0.00
2019-05-22T01:17:57.075Z,0.00
2019-05-22T01:18:57.072Z,0.00
2019-05-22T01:19:57.071Z,0.00
2019-05-22T01:20:57.077Z,0.00
2019-05-22T01:21:57.059Z,0.00
2019-05-22T01:22:57.066Z,0.00
2019-05-22T01:23:57.101Z,0.00
2019-05-22T01:24:57.059Z,0.00
2019-05-22T01:25:57.052Z,0.00
2019-05-22T01:26:57.054Z,0.00
2019-05-22T01:27:57.079Z,0.00
2019-05-22T01:28:57.047Z,0.00
2019-05-22T01:29:57.053Z,0.00
2019-05-22T01:30:57.044Z,0.00
2019-05-22T01:31:57.048Z,0.00
2019-05-22T01:32:57.037Z,0.00
2019-05-22T01:33:57.038Z,0.00
2019-05-22T01:34:57.032Z,0.00
2019-05-22T01:35:57.032Z,0.00
2019-05-22T01:36:57.026Z,0.00
2019-05-22T01:37:57.078Z,0.00
2019-05-22T01:38:57.022Z,0.00
2019-05-22T01:39:57.019Z,0.00
2019-05-22T01:40:57.017Z,0.00
2019-05-22T01:41:57.016Z,0.00
2019-05-22T01:42:57.013Z,0.00
2019-05-22T01:43:57.010Z,0.00
2019-05-22T01:45:04.723Z,0.00
2019-05-22T01:45:57.003Z,0.00
2019-05-22T01:46:57.002Z,0.00
2019-05-22T01:47:57.003Z,0.00
2019-05-22T01:48:56.998Z,0.00
2019-05-22T01:49:56.993Z,0.00
2019-05-22T01:50:56.991Z,0.00
2019-05-22T01:51:56.989Z,0.00
2019-05-22T01:52:57.031Z,0.00
2019-05-22T01:53:56.982Z,0.00
2019-05-22T01:54:56.990Z,0.00
2019-05-22T01:55:56.978Z,0.00
2019-05-22T01:56:56.980Z,0.00
2019-05-22T01:57:56.971Z,0.00
2019-05-22T01:58:56.969Z,0.00
2019-05-22T01:59:57.030Z,0.00
2019-05-22T02:00:56.965Z,0.00
2019-05-22T02:01:56.990Z,0.00
2019-05-22T02:02:56.961Z,0.00
2019-05-22T02:03:56.974Z,0.00
2019-05-22T02:04:56.958Z,0.00
2019-05-22T02:05:56.953Z,0.00
2019-05-22T02:06:56.951Z,0.00
2019-05-22T02:07:56.945Z,0.00
2019-05-22T02:08:56.945Z,0.00
2019-05-22T02:09:56.941Z,0.00
2019-05-22T02:10:56.940Z,0.00
2019-05-22T02:11:56.936Z,0.00
2019-05-22T02:12:56.934Z,0.00
2019-05-22T02:13:56.936Z,0.00
2019-05-22T02:14:56.927Z,0.00
2019-05-22T02:15:56.928Z,0.00
2019-05-22T02:16:57.523Z,0.00
2019-05-22T02:17:56.921Z,0.00
2019-05-22T02:18:56.916Z,0.00
2019-05-22T02:19:56.918Z,0.00
2019-05-22T02:20:56.911Z,0.00
2019-05-22T02:21:56.926Z,0.00
2019-05-22T02:22:56.914Z,0.00
2019-05-22T02:23:56.903Z,0.00
2019-05-22T02:24:56.906Z,0.00
2019-05-22T02:25:56.899Z,0.00
2019-05-22T02:26:56.897Z,0.00
2019-05-22T02:27:56.893Z,0.00
2019-05-22T02:28:56.898Z,0.00
2019-05-22T02:29:56.889Z,0.00
2019-05-22T02:30:56.884Z,0.00
2019-05-22T02:31:56.889Z,0.00
2019-05-22T02:32:56.879Z,0.00
2019-05-22T02:33:56.883Z,0.00
2019-05-22T02:34:56.881Z,0.00
2019-05-22T02:35:56.873Z,0.00
2019-05-22T02:36:56.869Z,0.00
2019-05-22T02:37:56.875Z,0.00
2019-05-22T02:38:56.861Z,0.00
2019-05-22T02:39:56.861Z,4.00
2019-05-22T02:40:56.862Z,4.00
2019-05-22T02:41:56.855Z,0.00
2019-05-22T02:42:56.939Z,0.00
2019-05-22T02:43:56.850Z,0.00
2019-05-22T02:44:56.856Z,4.00
2019-05-22T02:45:56.845Z,4.00
2019-05-22T02:47:14.416Z,4.00
2019-05-22T02:47:56.838Z,4.00
2019-05-22T02:48:56.837Z,4.00
2019-05-22T02:49:56.830Z,4.00
2019-05-22T02:50:56.830Z,8.00
2019-05-22T02:51:56.872Z,4.00
2019-05-22T02:52:56.826Z,4.00
2019-05-22T02:53:56.822Z,8.00
2019-05-22T02:54:56.819Z,8.00
2019-05-22T02:55:56.820Z,12.00
2019-05-22T02:56:56.816Z,12.00
2019-05-22T02:57:56.817Z,12.00
2019-05-22T02:58:56.807Z,12.00
2019-05-22T02:59:56.803Z,16.00
2019-05-22T03:00:56.803Z,16.00
2019-05-22T03:01:56.796Z,12.00
2019-05-22T03:02:56.794Z,16.00
2019-05-22T03:03:56.798Z,16.00
2019-05-22T03:04:56.796Z,16.00
2019-05-22T03:05:56.798Z,16.00
2019-05-22T03:06:56.784Z,16.00
2019-05-22T03:07:56.786Z,20.00
2019-05-22T03:08:56.779Z,20.00
2019-05-22T03:09:56.793Z,16.00
2019-05-22T03:10:56.771Z,20.00
2019-05-22T03:11:56.771Z,24.00
2019-05-22T03:12:56.765Z,20.00
2019-05-22T03:13:56.772Z,24.00
2019-05-22T03:14:56.764Z,28.00
2019-05-22T03:15:56.759Z,28.00
2019-05-22T03:16:56.758Z,32.00
2019-05-22T03:17:56.754Z,32.00
2019-05-22T03:19:08.502Z,32.00
2019-05-22T03:19:56.747Z,32.00
2019-05-22T03:20:56.762Z,40.00
2019-05-22T03:21:56.744Z,32.00
2019-05-22T03:22:56.738Z,44.00
2019-05-22T03:23:56.734Z,44.00
2019-05-22T03:24:56.730Z,44.00
2019-05-22T03:25:56.728Z,44.00
2019-05-22T03:26:56.725Z,48.00
2019-05-22T03:27:56.725Z,48.00
2019-05-22T03:28:56.724Z,48.00
2019-05-22T03:29:56.719Z,52.00
2019-05-22T03:30:56.715Z,60.00
2019-05-22T03:31:56.721Z,64.00
2019-05-22T03:32:56.765Z,64.00
2019-05-22T03:33:56.706Z,68.00
2019-05-22T03:34:56.702Z,72.00
2019-05-22T03:35:56.706Z,64.00
2019-05-22T03:36:56.700Z,68.00
2019-05-22T03:37:56.698Z,72.00
2019-05-22T03:38:56.691Z,76.00
2019-05-22T03:39:56.682Z,80.00
2019-05-22T03:40:56.684Z,92.00
2019-05-22T03:41:56.683Z,80.00
2019-05-22T03:42:56.766Z,76.00
2019-05-22T03:43:56.674Z,76.00
2019-05-22T03:44:56.674Z,88.00
2019-05-22T03:45:56.691Z,84.00
2019-05-22T03:46:59.377Z,84.00
2019-05-22T03:47:56.664Z,92.00
2019-05-22T03:48:56.669Z,96.00
2019-05-22T03:49:56.661Z,116.00
2019-05-22T03:50:56.651Z,120.00
2019-05-22T03:51:56.650Z,128.00
2019-05-22T03:52:56.647Z,116.00
2019-05-22T03:53:56.645Z,136.00
2019-05-22T03:54:56.636Z,156.00
2019-05-22T03:55:56.643Z,164.00
2019-05-22T03:56:56.630Z,136.00
2019-05-22T03:57:56.631Z,164.00
2019-05-22T03:58:56.632Z,168.00
2019-05-22T03:59:56.630Z,180.00
2019-05-22T04:00:56.657Z,180.00
2019-05-22T04:01:56.621Z,180.00
2019-05-22T04:02:56.628Z,196.00
2019-05-22T04:03:56.615Z,204.00
2019-05-22T04:04:56.607Z,176.00
2019-05-22T04:05:56.610Z,188.00
2019-05-22T04:06:56.600Z,220.00
2019-05-22T04:07:56.596Z,236.00
2019-05-22T04:08:56.714Z,188.00
2019-05-22T04:09:56.595Z,236.00
2019-05-22T04:10:56.585Z,216.00
2019-05-22T04:11:56.589Z,236.00
2019-05-22T04:12:56.592Z,252.00
2019-05-22T04:13:56.578Z,232.00
2019-05-22T04:14:56.581Z,268.00
2019-05-22T04:15:56.571Z,220.00
2019-05-22T04:16:56.570Z,224.00
2019-05-22T04:17:56.567Z,248.00
2019-05-22T04:18:56.568Z,288.00
2019-05-22T04:19:56.566Z,268.00
2019-05-22T04:20:56.556Z,332.00
2019-05-22T04:21:56.550Z,308.00
2019-05-22T04:22:56.548Z,220.00
2019-05-22T04:23:56.551Z,240.00
2019-05-22T04:24:56.539Z,224.00
2019-05-22T04:25:56.538Z,228.00
2019-05-22T04:26:56.533Z,244.00
2019-05-22T04:27:56.542Z,240.00
2019-05-22T04:28:56.525Z,232.00
2019-05-22T04:29:56.528Z,236.00
2019-05-22T04:30:59.821Z,232.00
2019-05-22T04:31:56.524Z,256.00
2019-05-22T04:32:56.515Z,268.00
2019-05-22T04:33:56.508Z,292.00
2019-05-22T04:34:56.505Z,308.00
2019-05-22T04:35:56.495Z,308.00
2019-05-22T04:36:56.501Z,324.00
2019-05-22T04:37:56.510Z,340.00
2019-05-22T04:38:56.494Z,336.00
2019-05-22T04:39:56.495Z,316.00
2019-05-22T04:40:56.489Z,296.00
2019-05-22T04:41:56.486Z,360.00
2019-05-22T04:42:56.490Z,420.00
2019-05-22T04:43:56.474Z,472.00
2019-05-22T04:44:56.505Z,432.00
2019-05-22T04:45:56.473Z,436.00
2019-05-22T04:46:56.489Z,456.00
2019-05-22T04:47:56.454Z,460.00
2019-05-22T04:48:56.454Z,576.00
2019-05-22T04:50:06.618Z,528.00
2019-05-22T04:50:56.455Z,532.00
2019-05-22T04:51:56.450Z,484.00
2019-05-22T04:52:56.451Z,500.00
2019-05-22T04:53:56.435Z,460.00
2019-05-22T04:54:56.434Z,480.00
2019-05-22T04:55:56.432Z,420.00
2019-05-22T04:56:56.424Z,408.00
2019-05-22T04:57:56.422Z,456.00
2019-05-22T04:58:56.423Z,416.00
2019-05-22T04:59:56.416Z,428.00
2019-05-22T05:00:56.412Z,452.00
2019-05-22T05:01:56.410Z,464.00
2019-05-22T05:02:56.403Z,496.00
2019-05-22T05:03:56.398Z,540.00
2019-05-22T05:04:56.398Z,576.00
2019-05-22T05:05:56.397Z,556.00
2019-05-22T05:06:56.392Z,572.00
2019-05-22T05:07:56.406Z,544.00
2019-05-22T05:08:56.384Z,528.00
2019-05-22T05:09:56.378Z,528.00
2019-05-22T05:10:56.373Z,560.00
2019-05-22T05:11:56.377Z,556.00
2019-05-22T05:12:56.365Z,556.00
2019-05-22T05:13:56.361Z,548.00
2019-05-22T05:14:56.369Z,592.00
2019-05-22T05:15:56.369Z,640.00
2019-05-22T05:16:56.352Z,628.00
2019-05-22T05:17:56.357Z,700.00
2019-05-22T05:18:56.350Z,668.00
2019-05-22T05:19:56.354Z,636.00
2019-05-22T05:20:56.337Z,592.00
2019-05-22T05:21:56.341Z,640.00
2019-05-22T05:22:56.320Z,620.00
2019-05-22T05:23:56.322Z,668.00
2019-05-22T05:24:56.320Z,628.00
2019-05-22T05:25:56.314Z,616.00
2019-05-22T05:26:56.316Z,620.00
2019-05-22T05:27:57.179Z,624.00
2019-05-22T05:28:56.316Z,636.00
2019-05-22T05:29:57.178Z,632.00
2019-05-22T05:30:56.313Z,588.00
2019-05-22T05:31:56.306Z,640.00
2019-05-22T05:32:56.292Z,624.00
2019-05-22T05:33:56.287Z,728.00
2019-05-22T05:34:56.289Z,696.00
2019-05-22T05:35:56.283Z,676.00
2019-05-22T05:36:56.284Z,756.00
2019-05-22T05:37:56.274Z,656.00
2019-05-22T05:38:56.270Z,724.00
2019-05-22T05:39:56.265Z,868.00
2019-05-22T05:40:56.264Z,716.00
2019-05-22T05:41:56.259Z,784.00
2019-05-22T05:42:56.252Z,836.00
2019-05-22T05:43:56.248Z,900.00
2019-05-22T05:44:56.246Z,952.00
2019-05-22T05:45:56.257Z,1032.00
2019-05-22T05:46:56.237Z,1008.00
2019-05-22T05:47:56.241Z,1056.00
2019-05-22T05:48:56.239Z,1176.00
2019-05-22T05:49:56.227Z,1108.00
2019-05-22T05:50:56.221Z,976.00
2019-05-22T05:51:56.215Z,1120.00
2019-05-22T05:52:56.218Z,1132.00
2019-05-22T05:53:56.216Z,1024.00
2019-05-22T05:54:56.206Z,1016.00
2019-05-22T05:55:56.208Z,1196.00
2019-05-22T05:56:56.203Z,1212.00
2019-05-22T05:57:56.199Z,1276.00
2019-05-22T05:58:56.191Z,1180.00
2019-05-22T05:59:56.189Z,1136.00
2019-05-22T06:00:56.188Z,1116.00
2019-05-22T06:01:56.176Z,952.00
2019-05-22T06:02:56.888Z,992.00
2019-05-22T06:03:56.170Z,1296.00
2019-05-22T06:04:56.170Z,1548.00
2019-05-22T06:05:56.171Z,1092.00
2019-05-22T06:07:00.314Z,988.00
2019-05-22T06:07:56.154Z,1032.00
2019-05-22T06:08:56.156Z,976.00
2019-05-22T06:09:56.149Z,944.00
2019-05-22T06:10:56.143Z,984.00
2019-05-22T06:11:56.169Z,996.00
2019-05-22T06:12:56.171Z,1036.00
2019-05-22T06:13:56.129Z,1080.00
2019-05-22T06:14:56.129Z,1136.00
2019-05-22T06:15:56.124Z,1324.00
2019-05-22T06:16:56.119Z,1436.00
2019-05-22T06:17:56.119Z,1556.00
2019-05-22T06:18:57.151Z,1544.00
2019-05-22T06:19:56.106Z,1416.00
2019-05-22T06:21:03.877Z,1476.00
2019-05-22T06:21:56.098Z,1448.00
2019-05-22T06:22:56.099Z,1516.00
2019-05-22T06:23:56.091Z,1460.00
2019-05-22T06:24:56.086Z,1496.00
2019-05-22T06:25:56.085Z,1620.00
2019-05-22T06:26:56.077Z,1580.00
2019-05-22T06:27:56.083Z,1544.00
2019-05-22T06:28:56.070Z,1488.00
2019-05-22T06:29:56.066Z,1476.00
2019-05-22T06:30:56.061Z,1432.00
2019-05-22T06:31:56.057Z,1376.00
2019-05-22T06:32:56.076Z,1320.00
2019-05-22T06:33:56.049Z,1356.00
2019-05-22T06:34:56.046Z,1352.00
2019-05-22T06:35:56.044Z,1540.00
2019-05-22T06:36:56.037Z,1572.00
2019-05-22T06:37:56.037Z,1500.00
2019-05-22T06:38:56.029Z,1532.00
2019-05-22T06:39:56.028Z,1568.00
2019-05-22T06:40:56.026Z,1820.00
2019-05-22T06:41:56.019Z,2128.00
2019-05-22T06:42:56.013Z,2048.00
2019-05-22T06:43:56.010Z,2392.00
2019-05-22T06:44:56.006Z,2276.00
2019-05-22T06:45:55.999Z,2080.00
2019-05-22T06:46:55.997Z,1924.00
2019-05-22T06:47:55.990Z,2056.00
2019-05-22T06:48:55.994Z,2212.00
2019-05-22T06:49:55.982Z,2500.00
2019-05-22T06:50:55.979Z,2744.00
2019-05-22T06:51:55.977Z,2776.00
2019-05-22T06:53:08.970Z,2448.00
2019-05-22T06:53:55.969Z,2920.00
2019-05-22T06:54:55.964Z,3004.00
2019-05-22T06:55:55.963Z,2952.00
2019-05-22T06:56:55.955Z,2720.00
2019-05-22T06:57:55.951Z,2516.00
2019-05-22T06:58:55.946Z,2944.00
2019-05-22T07:00:12.093Z,2596.00
2019-05-22T07:00:55.938Z,2832.00
2019-05-22T07:02:01.299Z,3060.00
2019-05-22T07:02:55.935Z,2716.00
2019-05-22T07:03:55.928Z,2244.00
2019-05-22T07:04:55.924Z,2128.00
2019-05-22T07:05:55.917Z,1984.00
2019-05-22T07:06:56.038Z,1944.00
2019-05-22T07:07:55.910Z,2044.00
2019-05-22T07:08:55.906Z,2056.00
2019-05-22T07:09:55.903Z,2040.00
2019-05-22T07:10:55.903Z,1956.00
2019-05-22T07:11:55.895Z,2096.00
2019-05-22T07:12:55.898Z,2036.00
2019-05-22T07:13:55.887Z,2216.00
2019-05-22T07:14:55.883Z,2180.00
2019-05-22T07:15:55.879Z,2132.00
2019-05-22T07:16:55.873Z,2132.00
2019-05-22T07:17:55.869Z,2356.00
2019-05-22T07:18:55.865Z,2320.00
2019-05-22T07:19:55.860Z,2508.00
2019-05-22T07:20:55.859Z,2468.00
2019-05-22T07:21:55.852Z,2744.00
2019-05-22T07:22:55.856Z,2708.00
2019-05-22T07:23:55.845Z,2596.00
2019-05-22T07:24:55.841Z,2880.00
2019-05-22T07:25:55.896Z,2920.00
2019-05-22T07:26:55.833Z,2792.00
2019-05-22T07:27:55.831Z,2924.00
2019-05-22T07:28:55.826Z,3184.00
2019-05-22T07:29:55.856Z,3104.00
2019-05-22T07:30:55.815Z,3044.00
2019-05-22T07:31:55.811Z,3160.00
2019-05-22T07:32:55.808Z,3484.00
2019-05-22T07:33:55.803Z,3272.00
2019-05-22T07:34:55.801Z,3304.00
2019-05-22T07:36:09.546Z,3240.00
2019-05-22T07:36:55.790Z,3268.00
2019-05-22T07:37:55.789Z,3168.00
2019-05-22T07:38:55.787Z,3108.00
2019-05-22T07:39:55.779Z,3256.00
2019-05-22T07:40:55.792Z,3212.00
2019-05-22T07:41:55.771Z,3176.00
2019-05-22T07:42:56.065Z,3052.00
2019-05-22T07:43:55.767Z,3080.00
2019-05-22T07:44:55.765Z,3144.00
2019-05-22T07:45:55.963Z,3096.00
2019-05-22T07:46:55.749Z,2780.00
2019-05-22T07:47:55.766Z,2848.00
2019-05-22T07:48:55.743Z,2524.00
2019-05-22T07:49:55.740Z,2520.00
2019-05-22T07:50:55.736Z,2476.00
2019-05-22T07:52:01.147Z,2760.00
2019-05-22T07:52:55.730Z,2544.00
2019-05-22T07:53:55.722Z,2508.00
2019-05-22T07:54:55.719Z,2408.00
2019-05-22T07:55:55.715Z,2400.00
2019-05-22T07:56:55.714Z,2388.00
2019-05-22T07:57:55.714Z,2452.00
2019-05-22T07:58:58.863Z,2444.00
2019-05-22T07:59:55.700Z,2556.00
2019-05-22T08:00:55.712Z,2792.00
2019-05-22T08:01:55.691Z,2712.00
2019-05-22T08:02:55.689Z,2872.00
2019-05-22T08:03:55.684Z,3008.00
2019-05-22T08:04:55.681Z,2928.00
2019-05-22T08:05:55.680Z,2872.00
2019-05-22T08:06:55.670Z,2820.00
2019-05-22T08:07:55.691Z,2876.00
2019-05-22T08:08:55.665Z,2960.00
2019-05-22T08:09:55.686Z,2488.00
2019-05-22T08:10:55.656Z,2392.00
2019-05-22T08:11:55.651Z,2572.00
2019-05-22T08:12:55.643Z,2916.00
2019-05-22T08:13:55.643Z,2912.00
2019-05-22T08:14:55.638Z,2928.00
2019-05-22T08:15:55.634Z,3216.00
2019-05-22T08:16:55.628Z,3364.00
2019-05-22T08:17:55.614Z,3456.00
2019-05-22T08:18:55.619Z,3268.00
2019-05-22T08:19:55.614Z,3128.00
2019-05-22T08:20:55.616Z,3316.00
2019-05-22T08:22:06.706Z,3248.00
2019-05-22T08:22:55.604Z,3072.00
2019-05-22T08:23:55.599Z,3364.00
2019-05-22T08:24:55.596Z,3152.00
2019-05-22T08:25:55.590Z,2860.00
2019-05-22T08:26:55.590Z,3284.00
2019-05-22T08:27:55.597Z,3116.00
2019-05-22T08:28:55.583Z,3228.00
2019-05-22T08:29:56.955Z,3200.00
2019-05-22T08:30:55.576Z,3236.00
2019-05-22T08:31:55.572Z,3352.00
2019-05-22T08:32:55.563Z,3284.00
2019-05-22T08:33:55.558Z,3276.00
2019-05-22T08:34:55.554Z,3184.00
2019-05-22T08:35:55.555Z,3272.00
2019-05-22T08:36:55.549Z,3288.00
2019-05-22T08:37:55.542Z,3380.00
2019-05-22T08:38:55.541Z,3660.00
2019-05-22T08:39:55.541Z,3508.00
2019-05-22T08:40:55.536Z,3320.00
2019-05-22T08:41:55.527Z,3356.00
2019-05-22T08:42:55.522Z,3544.00
2019-05-22T08:44:14.728Z,3572.00
2019-05-22T08:44:55.516Z,3568.00
2019-05-22T08:45:55.520Z,3492.00
2019-05-22T08:46:55.528Z,3488.00
2019-05-22T08:47:55.497Z,3444.00
2019-05-22T08:48:55.498Z,3596.00
2019-05-22T08:49:55.491Z,3556.00
2019-05-22T08:50:55.490Z,4132.00
2019-05-22T08:51:55.485Z,4048.00
2019-05-22T08:52:55.480Z,3920.00
2019-05-22T08:53:55.482Z,4056.00
2019-05-22T08:54:55.476Z,4300.00
2019-05-22T08:55:55.507Z,3788.00
2019-05-22T08:56:55.470Z,4068.00
2019-05-22T08:57:55.457Z,4288.00
2019-05-22T08:58:55.453Z,4512.00
2019-05-22T08:59:55.451Z,4512.00
2019-05-22T09:00:55.456Z,4236.00
2019-05-22T09:01:55.448Z,4036.00
2019-05-22T09:02:55.442Z,4760.00
2019-05-22T09:03:55.443Z,4292.00
2019-05-22T09:04:55.433Z,3844.00
2019-05-22T09:05:55.431Z,4348.00
2019-05-22T09:06:55.446Z,4920.00
2019-05-22T09:07:55.421Z,4416.00
2019-05-22T09:08:55.419Z,4608.00
2019-05-22T09:09:55.412Z,4424.00
2019-05-22T09:10:55.407Z,4340.00
2019-05-22T09:11:55.406Z,4272.00
2019-05-22T09:12:55.401Z,4144.00
2019-05-22T09:13:55.419Z,4096.00
2019-05-22T09:14:55.402Z,4184.00
2019-05-22T09:15:55.397Z,3840.00
2019-05-22T09:16:55.392Z,3916.00
2019-05-22T09:17:55.381Z,3892.00
2019-05-22T09:18:55.383Z,3924.00
2019-05-22T09:19:55.375Z,3816.00
2019-05-22T09:20:55.371Z,3848.00
2019-05-22T09:21:55.367Z,4164.00
2019-05-22T09:22:55.366Z,4028.00
2019-05-22T09:23:55.359Z,3928.00
2019-05-22T09:24:55.373Z,3964.00
2019-05-22T09:25:55.357Z,3940.00
2019-05-22T09:26:55.350Z,3756.00
2019-05-22T09:27:55.344Z,3640.00
2019-05-22T09:28:55.341Z,3784.00
2019-05-22T09:29:55.333Z,3916.00
2019-05-22T09:30:55.330Z,3876.00
2019-05-22T09:31:55.328Z,3680.00
2019-05-22T09:32:55.331Z,4036.00
2019-05-22T09:33:55.328Z,4132.00
2019-05-22T09:34:55.328Z,4052.00
2019-05-22T09:35:55.310Z,3780.00
2019-05-22T09:36:55.306Z,3332.00
2019-05-22T09:37:55.313Z,3312.00
2019-05-22T09:38:55.310Z,3248.00
2019-05-22T09:39:55.301Z,3476.00
2019-05-22T09:40:55.302Z,4092.00
2019-05-22T09:41:55.296Z,3496.00
2019-05-22T09:42:55.290Z,4316.00
2019-05-22T09:43:55.287Z,4016.00
2019-05-22T09:44:55.301Z,3480.00
2019-05-22T09:45:55.285Z,3936.00
2019-05-22T09:46:55.275Z,4004.00
2019-05-22T09:47:55.275Z,3700.00
2019-05-22T09:48:55.270Z,3816.00
2019-05-22T09:49:55.263Z,4136.00
2019-05-22T09:50:55.261Z,4784.00
2019-05-22T09:51:55.262Z,4748.00
2019-05-22T09:52:58.034Z,4892.00
2019-05-22T09:53:55.253Z,4556.00
2019-05-22T09:54:55.251Z,4228.00
2019-05-22T09:55:55.245Z,4116.00
2019-05-22T09:56:55.240Z,4304.00
2019-05-22T09:57:55.249Z,4060.00
2019-05-22T09:58:55.230Z,3776.00
2019-05-22T09:59:55.232Z,4192.00
2019-05-22T10:00:55.225Z,4824.00
2019-05-22T10:01:55.224Z,4540.00
2019-05-22T10:02:55.219Z,4232.00
2019-05-22T10:03:55.221Z,4168.00
2019-05-22T10:04:55.215Z,4156.00
2019-05-22T10:05:55.274Z,3816.00
2019-05-22T10:06:55.203Z,3708.00
2019-05-22T10:08:00.965Z,3632.00
2019-05-22T10:08:55.197Z,3644.00
2019-05-22T10:09:55.192Z,3692.00
2019-05-22T10:10:55.191Z,3576.00
2019-05-22T10:11:55.190Z,3668.00
2019-05-22T10:12:55.184Z,3788.00
2019-05-22T10:13:55.191Z,4144.00
2019-05-22T10:14:55.175Z,4484.00
2019-05-22T10:15:55.171Z,4392.00
2019-05-22T10:16:55.171Z,4632.00
2019-05-22T10:17:55.164Z,4556.00
2019-05-22T10:18:55.171Z,4836.00
2019-05-22T10:19:55.159Z,4948.00
2019-05-22T10:20:55.193Z,5104.00
2019-05-22T10:21:55.150Z,5252.00
2019-05-22T10:22:55.146Z,4784.00
2019-05-22T10:23:55.142Z,4988.00
2019-05-22T10:25:13.896Z,4344.00
2019-05-22T10:25:55.136Z,4424.00
2019-05-22T10:26:55.361Z,4664.00
2019-05-22T10:27:59.013Z,4848.00
2019-05-22T10:28:55.124Z,4592.00
2019-05-22T10:29:55.122Z,4964.00
2019-05-22T10:30:56.314Z,4544.00
2019-05-22T10:31:55.113Z,4460.00
2019-05-22T10:32:55.129Z,4404.00
2019-05-22T10:33:55.108Z,4892.00
2019-05-22T10:34:57.726Z,4620.00
2019-05-22T10:35:55.101Z,4764.00
2019-05-22T10:36:55.096Z,4728.00
2019-05-22T10:37:55.093Z,4568.00
2019-05-22T10:38:55.092Z,4516.00
2019-05-22T10:39:55.084Z,4384.00
2019-05-22T10:40:58.903Z,3996.00
2019-05-22T10:41:55.080Z,4240.00
2019-05-22T10:42:55.082Z,4188.00
2019-05-22T10:43:55.074Z,4196.00
2019-05-22T10:44:55.067Z,4476.00
2019-05-22T10:45:55.063Z,4596.00
2019-05-22T10:46:55.059Z,4700.00
2019-05-22T10:47:55.058Z,5248.00
2019-05-22T10:48:55.055Z,5448.00
2019-05-22T10:49:55.051Z,5772.00
2019-05-22T10:50:55.049Z,5476.00
2019-05-22T10:51:55.041Z,5056.00
2019-05-22T10:52:55.268Z,4692.00
2019-05-22T10:53:55.037Z,4756.00
2019-05-22T10:54:56.077Z,5100.00
2019-05-22T10:55:55.028Z,4432.00
2019-05-22T10:56:55.051Z,4648.00
2019-05-22T10:57:55.036Z,4544.00
2019-05-22T10:58:55.016Z,4652.00
2019-05-22T10:59:55.014Z,4220.00
2019-05-22T11:00:55.016Z,3696.00
2019-05-22T11:01:55.022Z,3728.00
2019-05-22T11:02:55.008Z,3624.00
2019-05-22T11:03:55.010Z,4236.00
2019-05-22T11:04:55.000Z,4048.00
2019-05-22T11:06:06.498Z,4140.00
2019-05-22T11:06:54.990Z,4824.00
2019-05-22T11:07:54.987Z,4396.00
2019-05-22T11:08:54.988Z,4372.00
2019-05-22T11:09:54.980Z,4192.00
2019-05-22T11:10:55.034Z,4368.00
2019-05-22T11:11:54.976Z,4852.00
2019-05-22T11:12:54.993Z,5260.00
2019-05-22T11:14:01.263Z,4864.00
2019-05-22T11:14:54.959Z,5080.00
2019-05-22T11:15:54.969Z,4768.00
2019-05-22T11:16:54.963Z,4940.00
2019-05-22T11:17:54.949Z,5592.00
2019-05-22T11:18:54.945Z,5552.00
2019-05-22T11:19:54.942Z,4872.00
2019-05-22T11:20:54.937Z,4964.00
2019-05-22T11:21:56.983Z,5260.00
2019-05-22T11:22:54.958Z,5400.00
2019-05-22T11:23:54.926Z,5264.00
2019-05-22T11:24:54.923Z,5348.00
2019-05-22T11:25:54.918Z,5348.00
2019-05-22T11:26:54.918Z,4900.00
2019-05-22T11:27:54.917Z,4648.00
2019-05-22T11:28:54.915Z,4400.00
2019-05-22T11:29:54.911Z,4136.00
2019-05-22T11:30:54.901Z,4356.00
2019-05-22T11:31:54.897Z,4096.00
2019-05-22T11:32:54.895Z,4084.00
2019-05-22T11:33:54.888Z,4236.00
2019-05-22T11:34:54.887Z,4284.00
2019-05-22T11:35:54.887Z,4048.00
2019-05-22T11:36:54.881Z,3840.00
2019-05-22T11:37:54.885Z,3532.00
2019-05-22T11:38:54.874Z,3464.00
2019-05-22T11:39:54.880Z,3440.00
2019-05-22T11:40:54.866Z,2988.00
2019-05-22T11:41:54.864Z,2904.00
2019-05-22T11:42:54.858Z,2556.00
2019-05-22T11:43:54.934Z,2428.00
2019-05-22T11:44:54.857Z,2340.00
2019-05-22T11:45:54.849Z,2380.00
2019-05-22T11:46:54.842Z,2440.00
2019-05-22T11:47:54.846Z,2584.00
2019-05-22T11:48:54.837Z,2876.00
2019-05-22T11:49:54.843Z,2948.00
2019-05-22T11:50:54.829Z,2872.00
2019-05-22T11:51:54.827Z,2728.00
2019-05-22T11:52:54.825Z,2604.00
2019-05-22T11:54:08.186Z,2652.00
2019-05-22T11:54:54.813Z,2552.00
2019-05-22T11:55:54.811Z,2504.00
2019-05-22T11:56:54.819Z,2468.00
2019-05-22T11:57:54.802Z,2544.00
2019-05-22T11:58:54.801Z,2880.00
2019-05-22T11:59:54.799Z,3028.00
2019-05-22T12:00:54.791Z,2668.00
2019-05-22T12:01:54.794Z,2628.00
2019-05-22T12:02:54.785Z,2712.00
2019-05-22T12:03:54.791Z,3124.00
2019-05-22T12:04:54.783Z,2920.00
2019-05-22T12:05:54.775Z,2936.00
2019-05-22T12:06:54.774Z,2800.00
2019-05-22T12:07:54.776Z,2976.00
2019-05-22T12:08:54.765Z,2612.00
2019-05-22T12:09:54.757Z,2424.00
2019-05-22T12:10:54.758Z,2276.00
2019-05-22T12:11:54.754Z,2180.00
2019-05-22T12:12:54.748Z,2060.00
2019-05-22T12:13:54.747Z,1936.00
2019-05-22T12:14:54.743Z,1960.00
2019-05-22T12:15:54.745Z,1984.00
2019-05-22T12:16:54.737Z,1956.00
2019-05-22T12:17:54.731Z,2020.00
2019-05-22T12:18:58.294Z,2044.00
2019-05-22T12:19:54.724Z,2088.00
2019-05-22T12:20:54.765Z,2336.00
2019-05-22T12:21:54.709Z,2800.00
2019-05-22T12:22:54.720Z,2716.00
2019-05-22T12:23:54.709Z,2780.00
2019-05-22T12:24:54.701Z,2820.00
2019-05-22T12:25:54.697Z,2380.00
2019-05-22T12:26:54.696Z,2420.00
2019-05-22T12:27:54.696Z,2592.00
2019-05-22T12:28:54.690Z,2728.00